sensor_id;sensor_type;location;lat;lon;timestamp;temperature;humidity
10304;DHT22;5197;48.152;8.590;2023-03-01T00:01:22;-2.60;19.50
10304;DHT22;5197;48.152;8.590;2023-03-01T00:03:50;-2.60;19.20
10304;DHT22;5197;48.152;8.590;2023-03-01T00:06:17;-2.60;19.70
10304;DHT22;5197;48.152;8.590;2023-03-01T00:08:44;-2.60;20.00
10304;DHT22;5197;48.152;8.590;2023-03-01T00:11:15;-3.90;19.10
10304;DHT22;5197;48.152;8.590;2023-03-01T00:13:46;-2.60;19.40
10304;DHT22;5197;48.152;8.590;2023-03-01T00:16:20;-2.70;19.80
10304;DHT22;5197;48.152;8.590;2023-03-01T00:18:47;-2.70;20.40
10304;DHT22;5197;48.152;8.590;2023-03-01T00:21:14;-2.70;20.10
10304;DHT22;5197;48.152;8.590;2023-03-01T00:23:41;-2.70;20.30
10304;DHT22;5197;48.152;8.590;2023-03-01T00:26:11;-2.70;19.90
10304;DHT22;5197;48.152;8.590;2023-03-01T00:28:38;-2.70;19.80
10304;DHT22;5197;48.152;8.590;2023-03-01T00:31:07;-2.70;20.00
10304;DHT22;5197;48.152;8.590;2023-03-01T00:33:34;-2.70;19.90
10304;DHT22;5197;48.152;8.590;2023-03-01T00:36:02;-2.70;19.70
10304;DHT22;5197;48.152;8.590;2023-03-01T00:38:30;-2.80;19.70
10304;DHT22;5197;48.152;8.590;2023-03-01T00:41:06;-2.80;20.10
10304;DHT22;5197;48.152;8.590;2023-03-01T00:43:33;-2.80;20.10
10304;DHT22;5197;48.152;8.590;2023-03-01T00:46:05;-2.90;21.10
10304;DHT22;5197;48.152;8.590;2023-03-01T00:48:33;-2.90;21.00
10304;DHT22;5197;48.152;8.590;2023-03-01T00:51:12;-2.90;21.60
10304;DHT22;5197;48.152;8.590;2023-03-01T00:53:39;-2.90;21.60
10304;DHT22;5197;48.152;8.590;2023-03-01T00:56:07;-2.90;22.10
10304;DHT22;5197;48.152;8.590;2023-03-01T00:58:35;-2.90;22.20
10304;DHT22;5197;48.152;8.590;2023-03-01T01:01:13;-2.90;21.90
10304;DHT22;5197;48.152;8.590;2023-03-01T01:03:55;-2.90;22.10
10304;DHT22;5197;48.152;8.590;2023-03-01T01:06:29;-2.90;22.00
10304;DHT22;5197;48.152;8.590;2023-03-01T01:08:57;-2.90;22.50
10304;DHT22;5197;48.152;8.590;2023-03-01T01:11:26;-2.90;21.90
10304;DHT22;5197;48.152;8.590;2023-03-01T01:13:53;-2.90;22.60
10304;DHT22;5197;48.152;8.590;2023-03-01T01:16:23;-3.00;22.70
10304;DHT22;5197;48.152;8.590;2023-03-01T01:18:51;-3.00;22.70
10304;DHT22;5197;48.152;8.590;2023-03-01T01:21:20;-3.00;23.00
10304;DHT22;5197;48.152;8.590;2023-03-01T01:23:47;-3.00;23.40
10304;DHT22;5197;48.152;8.590;2023-03-01T01:26:20;-3.00;23.60
10304;DHT22;5197;48.152;8.590;2023-03-01T01:28:47;-3.00;23.90
10304;DHT22;5197;48.152;8.590;2023-03-01T01:31:15;-3.00;24.30
10304;DHT22;5197;48.152;8.590;2023-03-01T01:33:42;-3.00;24.40
10304;DHT22;5197;48.152;8.590;2023-03-01T01:36:09;-3.00;24.30
10304;DHT22;5197;48.152;8.590;2023-03-01T01:38:36;-3.00;24.00
10304;DHT22;5197;48.152;8.590;2023-03-01T01:41:04;-3.00;23.60
10304;DHT22;5197;48.152;8.590;2023-03-01T01:43:41;-3.00;23.70
10304;DHT22;5197;48.152;8.590;2023-03-01T01:48:52;-3.00;24.40
10304;DHT22;5197;48.152;8.590;2023-03-01T01:51:25;-3.00;24.40
10304;DHT22;5197;48.152;8.590;2023-03-01T01:53:59;-3.00;24.40
10304;DHT22;5197;48.152;8.590;2023-03-01T01:56:28;-3.00;24.50
10304;DHT22;5197;48.152;8.590;2023-03-01T01:58:56;-3.00;24.50
10304;DHT22;5197;48.152;8.590;2023-03-01T02:01:24;-3.00;24.40
10304;DHT22;5197;48.152;8.590;2023-03-01T02:03:52;-3.10;24.80
10304;DHT22;5197;48.152;8.590;2023-03-01T02:06:26;-3.10;25.00
10304;DHT22;5197;48.152;8.590;2023-03-01T02:09:00;-3.00;25.60
10304;DHT22;5197;48.152;8.590;2023-03-01T02:11:30;-3.10;26.10
10304;DHT22;5197;48.152;8.590;2023-03-01T02:13:57;-3.00;26.20
10304;DHT22;5197;48.152;8.590;2023-03-01T02:16:25;-3.00;25.70
10304;DHT22;5197;48.152;8.590;2023-03-01T02:18:53;-3.00;25.70
10304;DHT22;5197;48.152;8.590;2023-03-01T02:21:42;-3.00;25.50
10304;DHT22;5197;48.152;8.590;2023-03-01T02:27:11;-2.90;26.10
10304;DHT22;5197;48.152;8.590;2023-03-01T02:29:38;-2.90;26.00
10304;DHT22;5197;48.152;8.590;2023-03-01T02:32:05;-2.90;26.40
10304;DHT22;5197;48.152;8.590;2023-03-01T02:34:33;-2.90;26.00
10304;DHT22;5197;48.152;8.590;2023-03-01T02:37:08;-2.90;26.00
10304;DHT22;5197;48.152;8.590;2023-03-01T02:39:46;-2.90;26.00
10304;DHT22;5197;48.152;8.590;2023-03-01T02:42:22;-2.90;26.20
10304;DHT22;5197;48.152;8.590;2023-03-01T02:44:52;-2.90;26.40
10304;DHT22;5197;48.152;8.590;2023-03-01T02:47:20;-2.90;26.20
10304;DHT22;5197;48.152;8.590;2023-03-01T02:49:47;-1.90;26.90
10304;DHT22;5197;48.152;8.590;2023-03-01T02:53:19;-3.00;26.10
10304;DHT22;5197;48.152;8.590;2023-03-01T02:55:20;-3.00;26.40
10304;DHT22;5197;48.152;8.590;2023-03-01T02:57:48;-3.00;26.70
10304;DHT22;5197;48.152;8.590;2023-03-01T03:00:28;-2.90;26.90
10304;DHT22;5197;48.152;8.590;2023-03-01T03:02:56;-2.90;26.90
10304;DHT22;5197;48.152;8.590;2023-03-01T03:05:29;-2.90;26.90
10304;DHT22;5197;48.152;8.590;2023-03-01T03:07:58;-3.00;27.20
10304;DHT22;5197;48.152;8.590;2023-03-01T03:10:28;-3.00;27.20
10304;DHT22;5197;48.152;8.590;2023-03-01T03:13:01;-3.00;27.40
10304;DHT22;5197;48.152;8.590;2023-03-01T03:15:29;-3.00;27.40
10304;DHT22;5197;48.152;8.590;2023-03-01T03:17:57;-3.00;27.90
10304;DHT22;5197;48.152;8.590;2023-03-01T03:20:26;-3.00;28.10
10304;DHT22;5197;48.152;8.590;2023-03-01T03:22:55;-3.00;27.90
10304;DHT22;5197;48.152;8.590;2023-03-01T03:25:22;-3.00;28.10
10304;DHT22;5197;48.152;8.590;2023-03-01T03:27:50;-3.00;28.10
10304;DHT22;5197;48.152;8.590;2023-03-01T03:30:28;-3.00;28.10
10304;DHT22;5197;48.152;8.590;2023-03-01T03:32:55;-3.00;28.30
10304;DHT22;5197;48.152;8.590;2023-03-01T03:35:25;-2.90;28.10
10304;DHT22;5197;48.152;8.590;2023-03-01T03:37:52;-2.90;28.00
10304;DHT22;5197;48.152;8.590;2023-03-01T03:40:37;-2.90;28.10
10304;DHT22;5197;48.152;8.590;2023-03-01T03:43:07;-2.90;27.80
10304;DHT22;5197;48.152;8.590;2023-03-01T03:45:34;-2.80;28.10
10304;DHT22;5197;48.152;8.590;2023-03-01T03:48:03;-2.90;28.10
10304;DHT22;5197;48.152;8.590;2023-03-01T03:50:32;-2.80;27.80
10304;DHT22;5197;48.152;8.590;2023-03-01T03:53:03;-2.80;27.90
10304;DHT22;5197;48.152;8.590;2023-03-01T03:55:30;-2.80;28.20
10304;DHT22;5197;48.152;8.590;2023-03-01T03:57:58;-2.80;28.20
10304;DHT22;5197;48.152;8.590;2023-03-01T04:00:28;-2.80;28.20
10304;DHT22;5197;48.152;8.590;2023-03-01T04:02:56;-2.80;28.70
10304;DHT22;5197;48.152;8.590;2023-03-01T04:05:23;-2.90;28.50
10304;DHT22;5197;48.152;8.590;2023-03-01T04:07:50;-2.90;28.40
10304;DHT22;5197;48.152;8.590;2023-03-01T04:10:32;-2.90;28.70
10304;DHT22;5197;48.152;8.590;2023-03-01T04:13:00;-2.90;28.80
10304;DHT22;5197;48.152;8.590;2023-03-01T04:15:27;-2.90;29.10
10304;DHT22;5197;48.152;8.590;2023-03-01T04:17:55;-2.90;29.50
10304;DHT22;5197;48.152;8.590;2023-03-01T04:20:24;-2.90;29.20
10304;DHT22;5197;48.152;8.590;2023-03-01T04:28:16;-2.80;28.80
10304;DHT22;5197;48.152;8.590;2023-03-01T04:30:43;-2.90;29.00
10304;DHT22;5197;48.152;8.590;2023-03-01T04:33:11;-2.80;28.80
10304;DHT22;5197;48.152;8.590;2023-03-01T04:35:38;-2.80;29.10
10304;DHT22;5197;48.152;8.590;2023-03-01T04:38:07;-2.90;28.80
10304;DHT22;5197;48.152;8.590;2023-03-01T04:40:35;-2.90;29.20
10304;DHT22;5197;48.152;8.590;2023-03-01T04:43:03;-2.90;29.40
10304;DHT22;5197;48.152;8.590;2023-03-01T04:45:31;-2.90;29.60
10304;DHT22;5197;48.152;8.590;2023-03-01T04:47:58;-2.90;29.70
10304;DHT22;5197;48.152;8.590;2023-03-01T04:50:26;-2.90;29.60
10304;DHT22;5197;48.152;8.590;2023-03-01T04:52:52;-2.90;29.90
10304;DHT22;5197;48.152;8.590;2023-03-01T04:55:19;-2.90;29.80
10304;DHT22;5197;48.152;8.590;2023-03-01T04:57:47;-2.90;29.70
10304;DHT22;5197;48.152;8.590;2023-03-01T05:00:15;-2.90;29.70
10304;DHT22;5197;48.152;8.590;2023-03-01T05:02:53;-2.90;29.40
10304;DHT22;5197;48.152;8.590;2023-03-01T05:05:34;-2.90;29.40
10304;DHT22;5197;48.152;8.590;2023-03-01T05:08:04;-2.90;29.90
10304;DHT22;5197;48.152;8.590;2023-03-01T05:10:33;-2.90;30.00
10304;DHT22;5197;48.152;8.590;2023-03-01T05:13:02;-2.90;30.20
10304;DHT22;5197;48.152;8.590;2023-03-01T05:15:31;-2.90;30.10
10304;DHT22;5197;48.152;8.590;2023-03-01T05:17:59;-2.90;30.00
10304;DHT22;5197;48.152;8.590;2023-03-01T05:20:28;-2.80;30.00
10304;DHT22;5197;48.152;8.590;2023-03-01T05:22:59;-2.80;29.90
10304;DHT22;5197;48.152;8.590;2023-03-01T05:25:27;-2.80;30.00
10304;DHT22;5197;48.152;8.590;2023-03-01T05:28:01;-2.80;30.00
10304;DHT22;5197;48.152;8.590;2023-03-01T05:30:34;-2.80;30.00
10304;DHT22;5197;48.152;8.590;2023-03-01T05:33:01;-2.80;30.10
10304;DHT22;5197;48.152;8.590;2023-03-01T05:35:28;-2.80;30.20
10304;DHT22;5197;48.152;8.590;2023-03-01T05:37:56;-2.80;30.20
10304;DHT22;5197;48.152;8.590;2023-03-01T05:40:23;-2.80;30.10
10304;DHT22;5197;48.152;8.590;2023-03-01T05:42:54;-2.80;30.30
10304;DHT22;5197;48.152;8.590;2023-03-01T05:45:23;-2.80;30.30
10304;DHT22;5197;48.152;8.590;2023-03-01T05:47:50;-2.80;30.20
10304;DHT22;5197;48.152;8.590;2023-03-01T05:50:25;-2.80;30.10
10304;DHT22;5197;48.152;8.590;2023-03-01T05:53:01;-2.80;30.40
10304;DHT22;5197;48.152;8.590;2023-03-01T05:55:35;-2.80;31.00
10304;DHT22;5197;48.152;8.590;2023-03-01T05:58:07;-2.90;31.00
10304;DHT22;5197;48.152;8.590;2023-03-01T06:00:34;-2.80;31.00
10304;DHT22;5197;48.152;8.590;2023-03-01T06:03:01;-2.90;31.30
10304;DHT22;5197;48.152;8.590;2023-03-01T06:05:29;-2.90;31.80
10304;DHT22;5197;48.152;8.590;2023-03-01T06:07:59;-2.90;32.20
10304;DHT22;5197;48.152;8.590;2023-03-01T06:10:26;-2.90;32.40
10304;DHT22;5197;48.152;8.590;2023-03-01T06:12:53;-2.80;32.70
10304;DHT22;5197;48.152;8.590;2023-03-01T06:15:20;-2.90;32.30
10304;DHT22;5197;48.152;8.590;2023-03-01T06:17:48;-2.80;32.20
10304;DHT22;5197;48.152;8.590;2023-03-01T06:20:18;-2.90;32.30
10304;DHT22;5197;48.152;8.590;2023-03-01T06:22:45;-2.80;32.00
10304;DHT22;5197;48.152;8.590;2023-03-01T06:25:14;-2.80;32.30
10304;DHT22;5197;48.152;8.590;2023-03-01T06:27:42;-2.80;32.60
10304;DHT22;5197;48.152;8.590;2023-03-01T06:30:10;-2.80;32.40
10304;DHT22;5197;48.152;8.590;2023-03-01T06:32:38;-2.90;32.40
10304;DHT22;5197;48.152;8.590;2023-03-01T06:35:13;-2.90;33.10
10304;DHT22;5197;48.152;8.590;2023-03-01T06:37:41;-2.90;34.10
10304;DHT22;5197;48.152;8.590;2023-03-01T06:40:09;-2.90;34.90
10304;DHT22;5197;48.152;8.590;2023-03-01T06:42:39;-2.90;33.70
10304;DHT22;5197;48.152;8.590;2023-03-01T06:45:08;-2.90;34.10
10304;DHT22;5197;48.152;8.590;2023-03-01T06:47:35;-2.90;34.00
10304;DHT22;5197;48.152;8.590;2023-03-01T06:50:02;-2.90;34.30
10304;DHT22;5197;48.152;8.590;2023-03-01T06:52:29;-2.80;34.20
10304;DHT22;5197;48.152;8.590;2023-03-01T06:54:56;-2.90;33.60
10304;DHT22;5197;48.152;8.590;2023-03-01T06:57:23;-2.80;34.30
10304;DHT22;5197;48.152;8.590;2023-03-01T06:59:50;-2.90;34.20
10304;DHT22;5197;48.152;8.590;2023-03-01T07:02:16;-2.90;34.00
10304;DHT22;5197;48.152;8.590;2023-03-01T07:04:43;-2.80;34.40
10304;DHT22;5197;48.152;8.590;2023-03-01T07:07:11;-2.80;34.90
10304;DHT22;5197;48.152;8.590;2023-03-01T07:09:38;-2.80;34.40
10304;DHT22;5197;48.152;8.590;2023-03-01T07:12:05;-2.80;34.30
10304;DHT22;5197;48.152;8.590;2023-03-01T07:14:32;-2.80;34.10
10304;DHT22;5197;48.152;8.590;2023-03-01T07:16:58;-2.70;34.00
10304;DHT22;5197;48.152;8.590;2023-03-01T07:19:25;-2.70;34.10
10304;DHT22;5197;48.152;8.590;2023-03-01T07:21:52;-2.70;33.80
10304;DHT22;5197;48.152;8.590;2023-03-01T07:24:19;-2.60;33.30
10304;DHT22;5197;48.152;8.590;2023-03-01T07:26:49;-2.60;33.10
10304;DHT22;5197;48.152;8.590;2023-03-01T07:29:17;-2.60;31.90
10304;DHT22;5197;48.152;8.590;2023-03-01T07:31:44;-2.50;31.60
10304;DHT22;5197;48.152;8.590;2023-03-01T07:34:10;-2.60;31.70
10304;DHT22;5197;48.152;8.590;2023-03-01T07:36:38;-2.60;31.70
10304;DHT22;5197;48.152;8.590;2023-03-01T07:39:06;-2.50;33.60
10304;DHT22;5197;48.152;8.590;2023-03-01T07:41:33;-2.60;32.70
10304;DHT22;5197;48.152;8.590;2023-03-01T07:43:59;-2.60;32.50
10304;DHT22;5197;48.152;8.590;2023-03-01T07:46:26;-2.60;32.90
10304;DHT22;5197;48.152;8.590;2023-03-01T07:48:53;-2.50;33.30
10304;DHT22;5197;48.152;8.590;2023-03-01T07:51:20;-2.50;33.50
10304;DHT22;5197;48.152;8.590;2023-03-01T07:53:48;-2.50;33.10
10304;DHT22;5197;48.152;8.590;2023-03-01T07:56:16;-2.40;32.70
10304;DHT22;5197;48.152;8.590;2023-03-01T07:58:45;-2.50;32.50
10304;DHT22;5197;48.152;8.590;2023-03-01T08:01:14;-2.50;32.90
10304;DHT22;5197;48.152;8.590;2023-03-01T08:03:42;-2.50;32.90
10304;DHT22;5197;48.152;8.590;2023-03-01T08:06:11;-2.40;32.70
10304;DHT22;5197;48.152;8.590;2023-03-01T08:08:38;-2.40;32.50
10304;DHT22;5197;48.152;8.590;2023-03-01T08:11:07;-2.30;32.90
10304;DHT22;5197;48.152;8.590;2023-03-01T08:13:34;-2.30;32.80
10304;DHT22;5197;48.152;8.590;2023-03-01T08:16:06;-2.30;31.90
10304;DHT22;5197;48.152;8.590;2023-03-01T08:18:34;-2.20;31.40
10304;DHT22;5197;48.152;8.590;2023-03-01T08:21:15;-2.20;30.80
10304;DHT22;5197;48.152;8.590;2023-03-01T08:23:42;-2.20;30.10
10304;DHT22;5197;48.152;8.590;2023-03-01T08:26:15;-2.20;31.90
10304;DHT22;5197;48.152;8.590;2023-03-01T08:28:42;-2.10;30.60
10304;DHT22;5197;48.152;8.590;2023-03-01T08:31:23;-2.10;29.60
10304;DHT22;5197;48.152;8.590;2023-03-01T08:33:53;-2.10;29.30
10304;DHT22;5197;48.152;8.590;2023-03-01T08:36:31;-2.00;29.60
10304;DHT22;5197;48.152;8.590;2023-03-01T08:38:59;-2.00;29.40
10304;DHT22;5197;48.152;8.590;2023-03-01T08:41:26;-2.00;29.10
10304;DHT22;5197;48.152;8.590;2023-03-01T08:43:53;-1.90;29.20
10304;DHT22;5197;48.152;8.590;2023-03-01T08:46:30;-1.90;29.00
10304;DHT22;5197;48.152;8.590;2023-03-01T08:48:58;-1.90;28.90
10304;DHT22;5197;48.152;8.590;2023-03-01T08:51:26;-1.90;28.80
10304;DHT22;5197;48.152;8.590;2023-03-01T08:53:53;-1.80;29.70
10304;DHT22;5197;48.152;8.590;2023-03-01T08:56:20;-1.80;28.80
10304;DHT22;5197;48.152;8.590;2023-03-01T08:58:48;-1.70;28.20
10304;DHT22;5197;48.152;8.590;2023-03-01T09:01:17;-1.70;28.10
10304;DHT22;5197;48.152;8.590;2023-03-01T09:03:44;-1.70;26.90
10304;DHT22;5197;48.152;8.590;2023-03-01T09:06:11;-1.70;27.50
10304;DHT22;5197;48.152;8.590;2023-03-01T09:08:40;-1.60;28.10
10304;DHT22;5197;48.152;8.590;2023-03-01T09:11:10;-1.60;27.10
10304;DHT22;5197;48.152;8.590;2023-03-01T09:13:37;-1.60;26.30
10304;DHT22;5197;48.152;8.590;2023-03-01T09:16:06;-1.60;27.30
10304;DHT22;5197;48.152;8.590;2023-03-01T09:18:33;-1.50;27.20
10304;DHT22;5197;48.152;8.590;2023-03-01T09:23:28;-1.50;26.80
10304;DHT22;5197;48.152;8.590;2023-03-01T09:25:55;-1.50;27.00
10304;DHT22;5197;48.152;8.590;2023-03-01T09:28:22;-1.60;27.00
10304;DHT22;5197;48.152;8.590;2023-03-01T09:30:58;-1.50;27.20
10304;DHT22;5197;48.152;8.590;2023-03-01T09:33:26;-1.50;27.90
10304;DHT22;5197;48.152;8.590;2023-03-01T09:36:17;-1.30;28.40
10304;DHT22;5197;48.152;8.590;2023-03-01T09:38:44;-1.30;27.20
10304;DHT22;5197;48.152;8.590;2023-03-01T09:43:52;-1.20;25.60
10304;DHT22;5197;48.152;8.590;2023-03-01T09:46:23;-1.10;25.70
10304;DHT22;5197;48.152;8.590;2023-03-01T09:48:56;-1.00;25.00
10304;DHT22;5197;48.152;8.590;2023-03-01T09:51:29;-1.10;24.30
10304;DHT22;5197;48.152;8.590;2023-03-01T09:53:57;-1.00;25.20
10304;DHT22;5197;48.152;8.590;2023-03-01T09:56:43;-0.90;24.50
10304;DHT22;5197;48.152;8.590;2023-03-01T09:59:25;-0.80;23.40
10304;DHT22;5197;48.152;8.590;2023-03-01T10:02:00;-0.80;23.10
10304;DHT22;5197;48.152;8.590;2023-03-01T10:04:48;-0.80;22.80
10304;DHT22;5197;48.152;8.590;2023-03-01T10:07:42;-0.80;23.50
10304;DHT22;5197;48.152;8.590;2023-03-01T10:10:23;-0.80;22.40
10304;DHT22;5197;48.152;8.590;2023-03-01T10:12:53;-0.70;24.00
10304;DHT22;5197;48.152;8.590;2023-03-01T10:15:34;-0.60;24.60
10304;DHT22;5197;48.152;8.590;2023-03-01T10:18:09;-0.60;22.00
10304;DHT22;5197;48.152;8.590;2023-03-01T10:20:56;-0.40;22.40
10304;DHT22;5197;48.152;8.590;2023-03-01T10:23:25;-0.40;20.20
10304;DHT22;5197;48.152;8.590;2023-03-01T10:26:14;-0.30;20.60
10304;DHT22;5197;48.152;8.590;2023-03-01T10:31:27;-0.20;19.50
10304;DHT22;5197;48.152;8.590;2023-03-01T10:34:13;-0.10;19.60
10304;DHT22;5197;48.152;8.590;2023-03-01T10:36:41;0.00;18.80
10304;DHT22;5197;48.152;8.590;2023-03-01T10:39:20;0.00;19.90
10304;DHT22;5197;48.152;8.590;2023-03-01T10:41:59;0.00;17.50
10304;DHT22;5197;48.152;8.590;2023-03-01T10:44:40;0.10;19.10
10304;DHT22;5197;48.152;8.590;2023-03-01T10:47:19;0.20;19.10
10304;DHT22;5197;48.152;8.590;2023-03-01T10:52:24;0.30;17.90
10304;DHT22;5197;48.152;8.590;2023-03-01T10:54:53;0.40;17.60
10304;DHT22;5197;48.152;8.590;2023-03-01T10:57:47;0.50;18.20
10304;DHT22;5197;48.152;8.590;2023-03-01T11:00:18;0.60;15.60
10304;DHT22;5197;48.152;8.590;2023-03-01T11:05:24;0.70;15.60
10304;DHT22;5197;48.152;8.590;2023-03-01T11:07:58;0.70;15.60
10304;DHT22;5197;48.152;8.590;2023-03-01T11:10:34;0.80;15.70
10304;DHT22;5197;48.152;8.590;2023-03-01T11:13:17;0.90;15.80
10304;DHT22;5197;48.152;8.590;2023-03-01T11:16:10;1.00;15.90
10304;DHT22;5197;48.152;8.590;2023-03-01T11:18:38;1.20;15.90
10304;DHT22;5197;48.152;8.590;2023-03-01T11:21:17;1.20;13.40
10304;DHT22;5197;48.152;8.590;2023-03-01T11:23:45;1.20;11.60
10304;DHT22;5197;48.152;8.590;2023-03-01T11:26:13;1.20;11.50
10304;DHT22;5197;48.152;8.590;2023-03-01T11:28:42;1.20;10.50
10304;DHT22;5197;48.152;8.590;2023-03-01T11:31:12;1.30;13.20
10304;DHT22;5197;48.152;8.590;2023-03-01T11:33:59;1.50;13.90
10304;DHT22;5197;48.152;8.590;2023-03-01T11:36:40;1.50;11.30
10304;DHT22;5197;48.152;8.590;2023-03-01T11:39:38;1.60;12.60
10304;DHT22;5197;48.152;8.590;2023-03-01T11:44:47;1.90;11.80
10304;DHT22;5197;48.152;8.590;2023-03-01T11:47:32;1.90;11.10
10304;DHT22;5197;48.152;8.590;2023-03-01T11:50:19;1.90;8.80
10304;DHT22;5197;48.152;8.590;2023-03-01T12:07:05;1.80;11.00
10304;DHT22;5197;48.152;8.590;2023-03-01T12:12:27;2.10;9.00
10304;DHT22;5197;48.152;8.590;2023-03-01T12:25:58;2.40;7.20
10304;DHT22;5197;48.152;8.590;2023-03-01T12:29:08;2.40;4.90
10304;DHT22;5197;48.152;8.590;2023-03-01T12:37:48;2.80;7.10
10304;DHT22;5197;48.152;8.590;2023-03-01T12:43:16;2.90;4.50
10304;DHT22;5197;48.152;8.590;2023-03-01T12:51:24;3.20;5.20
10304;DHT22;5197;48.152;8.590;2023-03-01T12:53:53;3.30;4.80
10304;DHT22;5197;48.152;8.590;2023-03-01T12:56:29;3.30;4.20
10304;DHT22;5197;48.152;8.590;2023-03-01T12:59:31;3.40;5.60
10304;DHT22;5197;48.152;8.590;2023-03-01T13:02:22;3.40;1.00
10304;DHT22;5197;48.152;8.590;2023-03-01T13:05:13;3.40;3.40
10304;DHT22;5197;48.152;8.590;2023-03-01T13:10:33;3.40;1.00
10304;DHT22;5197;48.152;8.590;2023-03-01T13:13:12;3.40;2.20
10304;DHT22;5197;48.152;8.590;2023-03-01T13:15:40;3.60;3.60
10304;DHT22;5197;48.152;8.590;2023-03-01T13:26:17;3.80;1.20
10304;DHT22;5197;48.152;8.590;2023-03-01T13:33:43;4.00;2.10
10304;DHT22;5197;48.152;8.590;2023-03-01T13:39:29;4.20;1.60
10304;DHT22;5197;48.152;8.590;2023-03-01T13:42:46;4.30;1.20
10304;DHT22;5197;48.152;8.590;2023-03-01T13:45:38;4.20;1.00
10304;DHT22;5197;48.152;8.590;2023-03-01T13:48:11;4.10;1.00
10304;DHT22;5197;48.152;8.590;2023-03-01T13:50:51;4.20;1.00
10304;DHT22;5197;48.152;8.590;2023-03-01T13:53:22;4.30;1.00
10304;DHT22;5197;48.152;8.590;2023-03-01T13:58:31;4.60;1.00
10304;DHT22;5197;48.152;8.590;2023-03-01T14:03:28;4.90;1.00
10304;DHT22;5197;48.152;8.590;2023-03-01T14:08:39;5.00;1.00
10304;DHT22;5197;48.152;8.590;2023-03-01T14:16:59;5.30;1.00
10304;DHT22;5197;48.152;8.590;2023-03-01T14:19:31;5.30;1.00
10304;DHT22;5197;48.152;8.590;2023-03-01T14:22:22;5.20;1.00
10304;DHT22;5197;48.152;8.590;2023-03-01T14:24:58;5.20;1.00
10304;DHT22;5197;48.152;8.590;2023-03-01T14:27:30;5.20;1.00
10304;DHT22;5197;48.152;8.590;2023-03-01T14:30:02;5.30;1.00
10304;DHT22;5197;48.152;8.590;2023-03-01T14:32:31;5.40;1.00
10304;DHT22;5197;48.152;8.590;2023-03-01T14:34:59;5.30;1.00
10304;DHT22;5197;48.152;8.590;2023-03-01T14:37:31;5.40;1.00
10304;DHT22;5197;48.152;8.590;2023-03-01T14:40:01;5.30;1.00
10304;DHT22;5197;48.152;8.590;2023-03-01T14:42:35;5.20;1.00
10304;DHT22;5197;48.152;8.590;2023-03-01T14:45:03;5.20;1.00
10304;DHT22;5197;48.152;8.590;2023-03-01T14:47:33;5.30;1.00
10304;DHT22;5197;48.152;8.590;2023-03-01T14:50:26;5.90;1.00
10304;DHT22;5197;48.152;8.590;2023-03-01T14:52:57;5.60;1.00
10304;DHT22;5197;48.152;8.590;2023-03-01T14:55:36;5.70;1.00
10304;DHT22;5197;48.152;8.590;2023-03-01T14:58:08;5.70;1.00
10304;DHT22;5197;48.152;8.590;2023-03-01T15:00:36;5.60;1.00
10304;DHT22;5197;48.152;8.590;2023-03-01T15:03:08;5.70;1.00
10304;DHT22;5197;48.152;8.590;2023-03-01T15:05:41;5.70;1.00
10304;DHT22;5197;48.152;8.590;2023-03-01T15:08:18;5.80;1.00
10304;DHT22;5197;48.152;8.590;2023-03-01T15:11:15;5.50;1.00
10304;DHT22;5197;48.152;8.590;2023-03-01T15:13:43;5.30;1.00
10304;DHT22;5197;48.152;8.590;2023-03-01T15:16:16;5.30;1.00
10304;DHT22;5197;48.152;8.590;2023-03-01T15:18:54;5.30;1.00
10304;DHT22;5197;48.152;8.590;2023-03-01T15:21:27;5.30;1.00
10304;DHT22;5197;48.152;8.590;2023-03-01T15:24:00;5.20;1.00
10304;DHT22;5197;48.152;8.590;2023-03-01T15:26:37;5.20;1.00
10304;DHT22;5197;48.152;8.590;2023-03-01T15:29:15;5.30;1.00
10304;DHT22;5197;48.152;8.590;2023-03-01T15:31:47;5.30;1.00
10304;DHT22;5197;48.152;8.590;2023-03-01T15:36:54;5.30;1.00
10304;DHT22;5197;48.152;8.590;2023-03-01T15:41:59;5.20;1.00
10304;DHT22;5197;48.152;8.590;2023-03-01T15:44:32;5.30;1.00
10304;DHT22;5197;48.152;8.590;2023-03-01T15:47:29;5.20;1.00
10304;DHT22;5197;48.152;8.590;2023-03-01T15:49:58;5.20;1.00
10304;DHT22;5197;48.152;8.590;2023-03-01T15:52:33;5.20;1.00
10304;DHT22;5197;48.152;8.590;2023-03-01T15:55:06;5.30;1.00
10304;DHT22;5197;48.152;8.590;2023-03-01T15:57:33;5.30;1.00
10304;DHT22;5197;48.152;8.590;2023-03-01T16:00:00;5.30;1.00
10304;DHT22;5197;48.152;8.590;2023-03-01T16:02:28;5.30;1.00
10304;DHT22;5197;48.152;8.590;2023-03-01T16:04:54;5.30;1.00
10304;DHT22;5197;48.152;8.590;2023-03-01T16:07:23;5.30;1.00
10304;DHT22;5197;48.152;8.590;2023-03-01T16:09:50;5.30;1.00
10304;DHT22;5197;48.152;8.590;2023-03-01T16:12:17;5.20;1.00
10304;DHT22;5197;48.152;8.590;2023-03-01T16:14:43;5.20;1.00
10304;DHT22;5197;48.152;8.590;2023-03-01T16:17:10;5.00;1.00
10304;DHT22;5197;48.152;8.590;2023-03-01T16:19:38;4.90;1.00
10304;DHT22;5197;48.152;8.590;2023-03-01T16:22:05;4.80;1.00
10304;DHT22;5197;48.152;8.590;2023-03-01T16:24:32;4.80;1.00
10304;DHT22;5197;48.152;8.590;2023-03-01T16:26:58;4.80;1.00
10304;DHT22;5197;48.152;8.590;2023-03-01T16:29:25;4.70;1.00
10304;DHT22;5197;48.152;8.590;2023-03-01T16:31:52;4.70;1.00
10304;DHT22;5197;48.152;8.590;2023-03-01T16:34:19;4.70;1.00
10304;DHT22;5197;48.152;8.590;2023-03-01T16:36:48;4.70;1.00
10304;DHT22;5197;48.152;8.590;2023-03-01T16:39:16;4.70;1.00
10304;DHT22;5197;48.152;8.590;2023-03-01T16:41:43;4.70;1.00
10304;DHT22;5197;48.152;8.590;2023-03-01T16:44:10;4.60;1.00
10304;DHT22;5197;48.152;8.590;2023-03-01T16:46:37;4.60;1.00
10304;DHT22;5197;48.152;8.590;2023-03-01T16:49:04;4.40;1.00
10304;DHT22;5197;48.152;8.590;2023-03-01T16:51:30;4.50;1.00
10304;DHT22;5197;48.152;8.590;2023-03-01T16:53:59;4.50;1.00
10304;DHT22;5197;48.152;8.590;2023-03-01T16:56:26;4.40;1.00
10304;DHT22;5197;48.152;8.590;2023-03-01T16:58:53;4.40;1.00
10304;DHT22;5197;48.152;8.590;2023-03-01T17:01:20;4.40;1.00
10304;DHT22;5197;48.152;8.590;2023-03-01T17:03:51;4.40;1.00
10304;DHT22;5197;48.152;8.590;2023-03-01T17:06:20;4.30;1.00
10304;DHT22;5197;48.152;8.590;2023-03-01T17:08:47;4.40;1.00
10304;DHT22;5197;48.152;8.590;2023-03-01T17:11:18;4.30;1.00
10304;DHT22;5197;48.152;8.590;2023-03-01T17:13:46;4.30;1.00
10304;DHT22;5197;48.152;8.590;2023-03-01T17:16:15;4.30;1.00
10304;DHT22;5197;48.152;8.590;2023-03-01T17:18:43;4.20;1.00
10304;DHT22;5197;48.152;8.590;2023-03-01T17:21:11;4.10;1.00
10304;DHT22;5197;48.152;8.590;2023-03-01T17:23:41;4.00;1.00
10304;DHT22;5197;48.152;8.590;2023-03-01T17:26:08;4.00;1.00
10304;DHT22;5197;48.152;8.590;2023-03-01T17:28:36;3.90;1.00
10304;DHT22;5197;48.152;8.590;2023-03-01T17:31:06;3.90;1.00
10304;DHT22;5197;48.152;8.590;2023-03-01T17:33:33;3.80;1.00
10304;DHT22;5197;48.152;8.590;2023-03-01T17:36:00;3.80;1.00
10304;DHT22;5197;48.152;8.590;2023-03-01T17:38:27;3.80;1.00
10304;DHT22;5197;48.152;8.590;2023-03-01T17:40:54;3.80;1.00
10304;DHT22;5197;48.152;8.590;2023-03-01T17:43:24;3.70;1.00
10304;DHT22;5197;48.152;8.590;2023-03-01T17:45:51;3.70;1.00
10304;DHT22;5197;48.152;8.590;2023-03-01T17:48:18;3.60;1.00
10304;DHT22;5197;48.152;8.590;2023-03-01T17:50:45;3.60;1.00
10304;DHT22;5197;48.152;8.590;2023-03-01T17:53:12;3.60;1.00
10304;DHT22;5197;48.152;8.590;2023-03-01T17:55:42;3.60;1.00
10304;DHT22;5197;48.152;8.590;2023-03-01T17:58:15;3.50;1.00
10304;DHT22;5197;48.152;8.590;2023-03-01T18:00:42;3.50;1.00
10304;DHT22;5197;48.152;8.590;2023-03-01T18:03:09;3.40;1.00
10304;DHT22;5197;48.152;8.590;2023-03-01T18:05:36;3.40;1.00
10304;DHT22;5197;48.152;8.590;2023-03-01T18:08:03;3.40;1.00
10304;DHT22;5197;48.152;8.590;2023-03-01T18:10:32;3.30;1.20